Time;durP1;ratioP1;P1;durP2;ratioP2;P2;SDS_P1;SDS_P2;PMS_P1;PMS_P2;Temp;Humidity;BMP_temperature;BMP_pressure;BME280_temperature;BME280_humidity;BME280_pressure;Samples;Min_cycle;Max_cycle;Signal;HPM_P1;HPM_P2
2023/09/25 00:01:33;;;;;;;4.47;4.07;;;;;;;;;;10456652;27;20070;-67
2023/09/25 00:06:32;;;;;;;4.85;4.22;;;;;;;;;;10454961;27;20073;-67
2023/09/25 00:11:30;;;;;;;4.63;3.75;;;;;;;;;;10457809;27;20070;-68
2023/09/25 00:16:28;;;;;;;4.60;4.18;;;;;;;;;;10460072;27;20058;-67
2023/09/25 00:21:28;;;;;;;8.48;4.75;;;;;;;;;;10453212;27;20063;-67
2023/09/25 00:26:26;;;;;;;6.05;4.93;;;;;;;;;;10436002;27;20047;-67
2023/09/25 00:31:25;;;;;;;8.77;5.20;;;;;;;;;;10456808;27;20508;-68
2023/09/25 00:36:23;;;;;;;6.28;5.20;;;;;;;;;;10458202;27;20089;-67
2023/09/25 00:41:23;;;;;;;8.10;5.07;;;;;;;;;;10441316;27;20067;-67
2023/09/25 00:46:21;;;;;;;8.13;5.03;;;;;;;;;;10455810;27;20491;-67
2023/09/25 00:51:19;;;;;;;9.52;5.53;;;;;;;;;;10436702;27;20081;-67
2023/09/25 00:56:18;;;;;;;6.15;5.10;;;;;;;;;;10455357;27;20518;-67
2023/09/25 01:01:18;;;;;;;6.75;5.75;;;;;;;;;;10455363;27;20073;-67
2023/09/25 01:06:16;;;;;;;10.43;6.60;;;;;;;;;;10454404;27;20500;-67
2023/09/25 01:11:15;;;;;;;6.88;6.22;;;;;;;;;;10436336;27;20085;-67
2023/09/25 01:16:13;;;;;;;9.35;7.63;;;;;;;;;;10457597;27;20518;-67
2023/09/25 01:21:13;;;;;;;8.98;6.90;;;;;;;;;;10452391;27;20506;-68
2023/09/25 01:26:13;;;;;;;7.82;6.93;;;;;;;;;;10454098;27;20447;-68
2023/09/25 01:31:12;;;;;;;10.85;7.28;;;;;;;;;;10448817;27;20078;-67
2023/09/25 01:36:11;;;;;;;9.43;6.38;;;;;;;;;;10451120;27;20077;-67
2023/09/25 01:41:10;;;;;;;11.00;7.97;;;;;;;;;;10449738;27;20066;-66
2023/09/25 01:46:09;;;;;;;8.07;7.28;;;;;;;;;;10449917;27;20062;-66
2023/09/25 01:51:11;;;;;;;9.32;8.05;;;;;;;;;;10454116;27;20073;-66
2023/09/25 01:56:10;;;;;;;7.97;7.15;;;;;;;;;;10452225;27;20515;-66
2023/09/25 02:01:09;;;;;;;9.55;7.05;;;;;;;;;;10442794;27;20081;-66
2023/09/25 02:06:08;;;;;;;9.27;7.95;;;;;;;;;;10449786;27;20074;-66
2023/09/25 02:11:06;;;;;;;11.85;7.22;;;;;;;;;;10455323;27;20124;-66
2023/09/25 02:16:04;;;;;;;8.70;7.13;;;;;;;;;;10439317;27;20074;-65
2023/09/25 02:21:04;;;;;;;11.68;7.63;;;;;;;;;;10428053;27;20046;-67
2023/09/25 02:26:02;;;;;;;8.30;7.45;;;;;;;;;;10464684;27;20074;-66
2023/09/25 02:31:01;;;;;;;10.27;6.72;;;;;;;;;;10448495;27;20078;-66
2023/09/25 02:36:09;;;;;;;8.38;6.95;;;;;;;;;;10460913;27;20574;-66
2023/09/25 02:41:07;;;;;;;11.60;6.75;;;;;;;;;;10464173;27;20534;-66
2023/09/25 02:46:07;;;;;;;9.98;6.80;;;;;;;;;;10449193;27;20077;-66
2023/09/25 02:51:07;;;;;;;9.95;7.28;;;;;;;;;;10457258;27;20074;-66
2023/09/25 02:56:05;;;;;;;13.50;6.93;;;;;;;;;;10459133;27;20066;-67
2023/09/25 03:01:03;;;;;;;9.43;7.20;;;;;;;;;;10461995;27;20113;-66
2023/09/25 03:06:02;;;;;;;11.95;7.53;;;;;;;;;;10461195;27;20047;-66
2023/09/25 03:11:01;;;;;;;8.90;8.10;;;;;;;;;;10457956;27;20078;-67
2023/09/25 03:16:00;;;;;;;13.13;8.43;;;;;;;;;;10459811;27;20515;-66
2023/09/25 03:21:07;;;;;;;13.93;8.88;;;;;;;;;;10461582;27;20470;-66
2023/09/25 03:26:14;;;;;;;15.02;10.00;;;;;;;;;;10450870;27;20078;-66
2023/09/25 03:31:13;;;;;;;13.45;10.52;;;;;;;;;;10451386;27;20085;-66
2023/09/25 03:36:12;;;;;;;12.10;9.45;;;;;;;;;;10460120;27;20568;-66
2023/09/25 03:41:10;;;;;;;10.98;9.93;;;;;;;;;;10459330;27;20058;-68
2023/09/25 03:46:10;;;;;;;11.20;10.05;;;;;;;;;;10456401;27;20465;-68
2023/09/25 03:51:08;;;;;;;16.02;10.30;;;;;;;;;;10457635;27;20070;-68
2023/09/25 03:56:06;;;;;;;13.75;10.40;;;;;;;;;;10437891;27;20494;-67
2023/09/25 04:01:04;;;;;;;15.02;10.07;;;;;;;;;;10451841;27;20546;-66
2023/09/25 04:06:04;;;;;;;13.73;8.63;;;;;;;;;;10461070;27;20070;-68
2023/09/25 04:11:03;;;;;;;9.93;8.38;;;;;;;;;;10458598;27;20077;-70
2023/09/25 04:16:02;;;;;;;14.00;7.18;;;;;;;;;;10452718;27;20101;-68
2023/09/25 04:21:02;;;;;;;11.88;6.70;;;;;;;;;;10462784;27;20054;-69
2023/09/25 04:26:03;;;;;;;10.23;6.75;;;;;;;;;;10457464;27;20081;-69
2023/09/25 04:31:04;;;;;;;11.48;6.95;;;;;;;;;;10458897;27;20085;-69
2023/09/25 04:36:02;;;;;;;12.88;7.15;;;;;;;;;;10452095;27;20066;-68
2023/09/25 04:41:02;;;;;;;11.48;7.40;;;;;;;;;;10451431;27;20059;-69
2023/09/25 04:46:01;;;;;;;13.00;6.38;;;;;;;;;;10447760;27;20420;-69
2023/09/25 04:50:59;;;;;;;12.50;6.35;;;;;;;;;;10450589;27;20491;-68
2023/09/25 04:55:57;;;;;;;8.07;6.38;;;;;;;;;;10452667;27;20066;-67
2023/09/25 05:00:57;;;;;;;9.85;7.90;;;;;;;;;;10454963;27;20070;-68
2023/09/25 05:05:56;;;;;;;10.52;8.00;;;;;;;;;;10454542;27;20066;-67
2023/09/25 05:10:54;;;;;;;16.60;7.65;;;;;;;;;;10452539;27;20126;-68
2023/09/25 05:15:52;;;;;;;15.93;8.13;;;;;;;;;;10452644;27;20069;-66
2023/09/25 05:20:52;;;;;;;10.27;7.28;;;;;;;;;;10455600;27;20062;-66
2023/09/25 05:25:50;;;;;;;14.65;7.60;;;;;;;;;;10451098;27;20079;-67
2023/09/25 05:30:49;;;;;;;13.98;9.38;;;;;;;;;;10448504;27;20079;-67
2023/09/25 05:35:47;;;;;;;13.75;11.02;;;;;;;;;;10452889;27;20471;-66
2023/09/25 05:40:51;;;;;;;12.93;9.98;;;;;;;;;;10455686;27;20066;-66
2023/09/25 05:45:49;;;;;;;14.70;9.93;;;;;;;;;;10459696;27;20077;-66
2023/09/25 05:50:47;;;;;;;16.42;10.23;;;;;;;;;;10441436;27;20085;-67
2023/09/25 05:55:46;;;;;;;22.13;10.27;;;;;;;;;;10462157;27;20070;-67
2023/09/25 06:00:46;;;;;;;19.35;10.98;;;;;;;;;;10464699;27;20066;-67
2023/09/25 06:05:45;;;;;;;18.33;9.95;;;;;;;;;;10445917;27;20083;-67
2023/09/25 06:10:44;;;;;;;14.45;9.45;;;;;;;;;;10464005;27;20077;-67
2023/09/25 06:15:43;;;;;;;15.20;10.00;;;;;;;;;;10461865;27;20074;-68
2023/09/25 06:20:43;;;;;;;12.48;9.55;;;;;;;;;;10469138;27;20059;-68
2023/09/25 06:25:42;;;;;;;14.65;10.23;;;;;;;;;;10462158;27;20122;-66
2023/09/25 06:30:41;;;;;;;11.45;9.25;;;;;;;;;;10465513;27;20494;-68
2023/09/25 06:35:39;;;;;;;12.70;9.05;;;;;;;;;;10462666;27;20059;-68
2023/09/25 06:40:45;;;;;;;13.15;9.02;;;;;;;;;;10458128;27;20071;-67
2023/09/25 06:45:44;;;;;;;19.08;9.55;;;;;;;;;;10462648;27;20070;-67
2023/09/25 06:50:42;;;;;;;15.68;8.68;;;;;;;;;;10461200;27;20085;-68
2023/09/25 06:55:40;;;;;;;19.38;9.27;;;;;;;;;;10456224;27;20598;-67
2023/09/25 07:00:40;;;;;;;17.10;8.75;;;;;;;;;;10461560;27;20066;-68
2023/09/25 07:05:54;;;;;;;11.93;8.23;;;;;;;;;;10458486;27;20081;-68
2023/09/25 07:10:52;;;;;;;10.20;7.68;;;;;;;;;;10458678;27;20075;-67
2023/09/25 07:15:52;;;;;;;13.10;7.53;;;;;;;;;;10461002;27;20143;-67
2023/09/25 07:20:54;;;;;;;17.35;8.13;;;;;;;;;;10456510;27;20058;-67
2023/09/25 07:25:59;;;;;;;12.23;7.93;;;;;;;;;;10456229;27;20074;-67
2023/09/25 07:31:00;;;;;;;15.23;7.60;;;;;;;;;;10455961;27;20079;-67
2023/09/25 07:35:59;;;;;;;11.23;7.50;;;;;;;;;;10438622;27;20514;-67
2023/09/25 07:41:00;;;;;;;14.38;8.80;;;;;;;;;;10454912;27;20070;-67
2023/09/25 07:46:02;;;;;;;17.85;8.38;;;;;;;;;;10459484;27;20066;-66
2023/09/25 07:51:01;;;;;;;19.67;7.88;;;;;;;;;;10456319;27;20070;-66
2023/09/25 07:55:59;;;;;;;10.45;7.65;;;;;;;;;;10459072;27;20587;-66
2023/09/25 08:01:00;;;;;;;13.60;7.20;;;;;;;;;;10459340;27;20348;-67
2023/09/25 08:06:05;;;;;;;13.13;7.40;;;;;;;;;;10452316;27;20058;-65
2023/09/25 08:11:03;;;;;;;14.93;7.97;;;;;;;;;;10461030;27;20070;-67
2023/09/25 08:16:05;;;;;;;18.70;7.93;;;;;;;;;;10459812;27;20070;-67
2023/09/25 08:21:05;;;;;;;22.88;6.93;;;;;;;;;;10457475;27;20070;-67
2023/09/25 08:26:10;;;;;;;14.65;8.57;;;;;;;;;;10696328;22;21168;-67
2023/09/25 08:31:08;;;;;;;14.07;6.32;;;;;;;;;;10234056;28;20111;-67
2023/09/25 08:36:11;;;;;;;14.73;6.38;;;;;;;;;;10251940;28;20080;-67
2023/09/25 08:41:10;;;;;;;16.25;6.80;;;;;;;;;;10251363;28;20077;-67
2023/09/25 08:46:08;;;;;;;12.07;7.05;;;;;;;;;;10252253;28;20083;-67
2023/09/25 08:51:06;;;;;;;11.07;6.50;;;;;;;;;;10253802;28;20080;-66
2023/09/25 08:56:12;;;;;;;15.68;7.32;;;;;;;;;;10254738;28;20361;-65
2023/09/25 09:01:10;;;;;;;16.60;6.38;;;;;;;;;;10254802;28;20066;-65
2023/09/25 09:06:09;;;;;;;15.25;6.53;;;;;;;;;;10253161;28;20084;-66
2023/09/25 09:11:11;;;;;;;16.02;7.00;;;;;;;;;;10249423;28;20079;-66
2023/09/25 09:16:12;;;;;;;12.32;6.10;;;;;;;;;;10255691;28;20079;-67
2023/09/25 09:21:24;;;;;;;11.77;5.65;;;;;;;;;;10251735;28;20172;-67
2023/09/25 09:26:25;;;;;;;12.45;6.28;;;;;;;;;;10253088;28;20099;-67
2023/09/25 09:31:23;;;;;;;12.68;6.10;;;;;;;;;;10249190;28;20072;-67
2023/09/25 09:36:23;;;;;;;12.55;5.93;;;;;;;;;;10254824;28;20061;-67
2023/09/25 09:41:22;;;;;;;17.27;6.53;;;;;;;;;;10253358;28;20084;-66
2023/09/25 09:46:26;;;;;;;18.92;5.55;;;;;;;;;;10248600;28;20073;-67
2023/09/25 09:51:26;;;;;;;13.43;5.68;;;;;;;;;;10246263;28;20061;-67
2023/09/25 09:56:26;;;;;;;11.70;5.10;;;;;;;;;;10249947;28;20076;-67
2023/09/25 10:01:25;;;;;;;15.48;5.35;;;;;;;;;;10236755;28;20069;-68
2023/09/25 10:06:24;;;;;;;8.93;5.10;;;;;;;;;;10252154;28;20072;-67
2023/09/25 10:11:24;;;;;;;14.23;4.53;;;;;;;;;;10251194;28;20072;-67
2023/09/25 10:16:28;;;;;;;14.90;5.10;;;;;;;;;;10253046;28;20076;-67
2023/09/25 10:21:27;;;;;;;13.02;4.57;;;;;;;;;;10257682;28;20069;-68
2023/09/25 10:26:26;;;;;;;13.27;4.60;;;;;;;;;;10250184;28;20073;-68
2023/09/25 10:31:29;;;;;;;16.85;4.15;;;;;;;;;;10248836;28;20386;-67
2023/09/25 10:36:37;;;;;;;17.67;5.20;;;;;;;;;;10250193;28;20084;-68
2023/09/25 10:41:36;;;;;;;10.57;4.18;;;;;;;;;;10252269;28;20076;-68
2023/09/25 10:46:36;;;;;;;17.08;3.70;;;;;;;;;;10257296;28;20067;-67
2023/09/25 10:51:34;;;;;;;13.48;4.60;;;;;;;;;;10264373;28;20064;-68
2023/09/25 10:56:33;;;;;;;10.98;4.43;;;;;;;;;;10257746;28;20506;-68
2023/09/25 11:01:32;;;;;;;13.13;4.43;;;;;;;;;;10261547;28;20099;-68
2023/09/25 11:06:32;;;;;;;13.32;4.78;;;;;;;;;;10255795;28;20069;-68
2023/09/25 11:11:30;;;;;;;10.93;4.68;;;;;;;;;;10263414;28;20072;-69
2023/09/25 11:16:29;;;;;;;9.20;4.25;;;;;;;;;;10256893;28;20084;-68
2023/09/25 11:21:30;;;;;;;15.45;4.60;;;;;;;;;;10256364;28;20084;-68
2023/09/25 11:26:31;;;;;;;9.55;3.83;;;;;;;;;;10259566;28;20069;-68
2023/09/25 11:31:30;;;;;;;16.85;5.18;;;;;;;;;;10254611;28;20072;-68
2023/09/25 11:36:48;;;;;;;10.70;3.90;;;;;;;;;;10257033;28;20084;-69
2023/09/25 11:41:47;;;;;;;12.20;3.65;;;;;;;;;;10254847;28;20973;-67
2023/09/25 11:46:46;;;;;;;11.60;3.80;;;;;;;;;;10256574;28;20072;-68
2023/09/25 11:51:45;;;;;;;18.40;3.83;;;;;;;;;;10258905;28;20065;-67
2023/09/25 11:56:43;;;;;;;15.43;3.88;;;;;;;;;;10257145;28;20084;-68
2023/09/25 12:01:43;;;;;;;15.65;3.88;;;;;;;;;;10260938;28;20079;-68
2023/09/25 12:06:42;;;;;;;12.38;3.72;;;;;;;;;;10256541;28;20823;-68
2023/09/25 12:11:41;;;;;;;12.50;4.03;;;;;;;;;;10260725;28;20494;-69
2023/09/25 12:16:40;;;;;;;13.85;3.75;;;;;;;;;;10254334;28;20076;-67
2023/09/25 12:21:40;;;;;;;17.02;3.40;;;;;;;;;;10259998;28;20088;-67
2023/09/25 12:26:38;;;;;;;17.38;3.40;;;;;;;;;;10248123;28;20103;-67
2023/09/25 12:31:36;;;;;;;14.88;3.95;;;;;;;;;;10242808;28;20124;-68
2023/09/25 12:36:35;;;;;;;14.65;3.50;;;;;;;;;;10255150;28;20084;-68
2023/09/25 12:41:35;;;;;;;9.43;3.22;;;;;;;;;;10254951;28;20083;-68
2023/09/25 12:46:33;;;;;;;15.20;3.58;;;;;;;;;;10254692;28;20061;-68
2023/09/25 12:51:32;;;;;;;12.38;3.25;;;;;;;;;;10256806;28;20084;-68
2023/09/25 12:56:30;;;;;;;13.75;3.78;;;;;;;;;;10256535;28;20069;-68
2023/09/25 13:01:29;;;;;;;12.40;4.05;;;;;;;;;;10253534;28;20085;-68
2023/09/25 13:06:29;;;;;;;9.38;2.35;;;;;;;;;;10252441;28;20079;-68
2023/09/25 13:11:28;;;;;;;10.02;2.90;;;;;;;;;;10252138;28;20553;-67
2023/09/25 13:16:27;;;;;;;8.18;3.30;;;;;;;;;;10249213;28;20065;-67
2023/09/25 13:21:27;;;;;;;13.32;3.13;;;;;;;;;;10235899;28;20080;-67
2023/09/25 13:26:26;;;;;;;15.13;2.90;;;;;;;;;;10255007;28;20486;-69
2023/09/25 13:31:24;;;;;;;16.40;3.35;;;;;;;;;;10250781;28;20084;-70
2023/09/25 13:36:23;;;;;;;11.57;3.25;;;;;;;;;;10250473;28;20067;-69
2023/09/25 13:41:23;;;;;;;17.73;2.95;;;;;;;;;;10252888;28;20454;-70
2023/09/25 13:46:21;;;;;;;10.75;3.10;;;;;;;;;;10243748;28;20146;-69
2023/09/25 13:51:19;;;;;;;18.25;3.20;;;;;;;;;;10251013;28;20068;-65
2023/09/25 13:56:17;;;;;;;9.77;3.40;;;;;;;;;;10251175;28;20065;-66
2023/09/25 14:01:17;;;;;;;13.50;3.40;;;;;;;;;;10249112;28;20364;-66
2023/09/25 14:06:15;;;;;;;10.52;3.08;;;;;;;;;;10247963;28;20077;-67
2023/09/25 14:11:14;;;;;;;11.90;3.63;;;;;;;;;;10254134;28;20077;-66
2023/09/25 14:16:12;;;;;;;23.90;3.45;;;;;;;;;;10252826;28;20088;-66
2023/09/25 14:21:12;;;;;;;15.00;3.75;;;;;;;;;;10262084;28;20502;-66
2023/09/25 14:26:12;;;;;;;8.85;3.40;;;;;;;;;;10258547;28;20087;-65
2023/09/25 14:31:11;;;;;;;10.93;3.38;;;;;;;;;;10264514;28;20077;-65
2023/09/25 14:36:09;;;;;;;18.80;3.53;;;;;;;;;;10257833;28;20076;-65
2023/09/25 14:41:09;;;;;;;18.27;3.90;;;;;;;;;;10258209;28;20088;-66
2023/09/25 14:46:07;;;;;;;11.85;3.72;;;;;;;;;;10260439;28;20087;-66
2023/09/25 14:51:06;;;;;;;18.38;4.15;;;;;;;;;;10260738;28;20080;-68
2023/09/25 14:56:04;;;;;;;8.05;3.20;;;;;;;;;;10242218;28;20080;-66
2023/09/25 15:01:04;;;;;;;11.75;3.70;;;;;;;;;;10260995;28;20103;-66
2023/09/25 15:06:03;;;;;;;15.82;3.20;;;;;;;;;;10259519;28;20080;-66
2023/09/25 15:11:01;;;;;;;15.32;3.47;;;;;;;;;;10259115;28;20083;-65
2023/09/25 15:16:00;;;;;;;15.00;3.72;;;;;;;;;;10256008;28;20088;-65
2023/09/25 15:21:04;;;;;;;14.95;4.10;;;;;;;;;;10257483;28;20065;-64
2023/09/25 15:26:04;;;;;;;7.00;3.53;;;;;;;;;;10260083;28;20079;-64
2023/09/25 15:31:02;;;;;;;19.15;4.13;;;;;;;;;;10256480;28;20084;-65
2023/09/25 15:36:00;;;;;;;9.20;4.55;;;;;;;;;;10256093;28;20080;-63
2023/09/25 15:41:00;;;;;;;13.38;4.22;;;;;;;;;;10259070;28;20064;-64
2023/09/25 15:45:58;;;;;;;9.95;3.42;;;;;;;;;;10260113;28;20599;-67
2023/09/25 15:50:56;;;;;;;12.60;3.63;;;;;;;;;;10261641;28;20076;-67
2023/09/25 15:55:55;;;;;;;10.88;3.95;;;;;;;;;;10254737;28;20095;-67
2023/09/25 16:00:55;;;;;;;16.92;3.90;;;;;;;;;;10259731;28;20080;-67
2023/09/25 16:05:53;;;;;;;10.20;3.25;;;;;;;;;;10262815;28;20069;-67
2023/09/25 16:10:52;;;;;;;16.00;4.03;;;;;;;;;;10256560;28;20497;-68
2023/09/25 16:15:50;;;;;;;9.40;3.28;;;;;;;;;;10253687;28;20125;-68
2023/09/25 16:20:50;;;;;;;15.00;3.65;;;;;;;;;;10256892;28;20072;-67
2023/09/25 16:25:48;;;;;;;16.25;4.03;;;;;;;;;;10255211;28;20072;-65
2023/09/25 16:30:46;;;;;;;15.82;3.65;;;;;;;;;;10255993;28;20112;-66
2023/09/25 16:35:45;;;;;;;11.50;3.83;;;;;;;;;;10255855;28;20072;-68
2023/09/25 16:40:45;;;;;;;24.50;5.35;;;;;;;;;;10258159;28;20068;-68
2023/09/25 16:45:43;;;;;;;14.88;4.85;;;;;;;;;;10254569;28;20068;-67
2023/09/25 16:50:42;;;;;;;11.68;4.88;;;;;;;;;;10254809;28;20073;-68
2023/09/25 16:55:47;;;;;;;16.70;4.90;;;;;;;;;;10254921;28;20077;-68
2023/09/25 17:00:46;;;;;;;29.88;5.10;;;;;;;;;;10262433;28;20069;-63
2023/09/25 17:05:44;;;;;;;16.20;3.47;;;;;;;;;;10262093;28;20065;-68
2023/09/25 17:10:43;;;;;;;16.50;3.65;;;;;;;;;;10274696;28;20057;-68
2023/09/25 17:15:41;;;;;;;19.90;3.78;;;;;;;;;;10265622;28;20239;-68
2023/09/25 17:20:41;;;;;;;16.40;3.83;;;;;;;;;;10266024;28;20061;-67
2023/09/25 17:25:39;;;;;;;11.32;3.80;;;;;;;;;;10255341;28;20075;-67
2023/09/25 17:30:37;;;;;;;7.85;3.42;;;;;;;;;;10255780;28;20076;-69
2023/09/25 17:35:35;;;;;;;9.60;3.00;;;;;;;;;;10255972;28;20076;-68
2023/09/25 17:40:35;;;;;;;20.30;3.67;;;;;;;;;;10262577;28;20071;-68
2023/09/25 17:45:33;;;;;;;14.45;3.45;;;;;;;;;;10256047;28;20470;-67
2023/09/25 17:50:32;;;;;;;20.70;3.63;;;;;;;;;;10257389;28;20374;-68
2023/09/25 17:55:30;;;;;;;16.60;4.35;;;;;;;;;;10273579;28;20076;-68
2023/09/25 18:00:29;;;;;;;7.10;3.30;;;;;;;;;;10269422;28;20069;-68
2023/09/25 18:05:28;;;;;;;27.27;3.92;;;;;;;;;;10266951;28;20065;-68
2023/09/25 18:10:27;;;;;;;12.63;3.97;;;;;;;;;;10264199;28;20790;-67
2023/09/25 18:15:26;;;;;;;10.70;4.35;;;;;;;;;;10270803;28;20525;-67
2023/09/25 18:20:26;;;;;;;13.73;4.00;;;;;;;;;;10265298;28;20068;-67
2023/09/25 18:25:24;;;;;;;11.80;3.85;;;;;;;;;;10259203;28;20526;-67
2023/09/25 18:30:22;;;;;;;21.38;5.28;;;;;;;;;;10262707;28;20111;-66
2023/09/25 18:35:21;;;;;;;8.85;3.97;;;;;;;;;;10264795;28;20616;-66
2023/09/25 18:40:20;;;;;;;16.17;4.40;;;;;;;;;;10260854;28;20083;-66
2023/09/25 18:45:19;;;;;;;14.90;4.75;;;;;;;;;;10264684;28;20073;-67
2023/09/25 18:50:17;;;;;;;30.33;3.92;;;;;;;;;;10269950;28;20516;-66
2023/09/25 18:55:16;;;;;;;19.25;4.10;;;;;;;;;;10263115;28;20574;-67
2023/09/25 19:00:16;;;;;;;20.33;4.40;;;;;;;;;;10266236;28;20069;-67
2023/09/25 19:05:15;;;;;;;15.52;4.30;;;;;;;;;;10260614;28;20103;-68
2023/09/25 19:10:13;;;;;;;20.02;4.18;;;;;;;;;;10260508;28;20080;-67
2023/09/25 19:15:12;;;;;;;14.23;4.30;;;;;;;;;;10264947;28;20065;-67
2023/09/25 19:20:12;;;;;;;22.50;4.53;;;;;;;;;;10257807;28;20072;-67
2023/09/25 19:25:10;;;;;;;17.88;4.60;;;;;;;;;;10261875;28;20065;-67
2023/09/25 19:30:11;;;;;;;6.13;3.03;;;;;;;;;;10260574;28;20080;-68
2023/09/25 19:35:09;;;;;;;17.70;4.63;;;;;;;;;;10238491;28;20076;-67
2023/09/25 19:40:09;;;;;;;21.70;4.80;;;;;;;;;;10255820;28;20080;-68
2023/09/25 19:45:08;;;;;;;32.58;6.05;;;;;;;;;;10257740;28;20537;-67
2023/09/25 19:50:07;;;;;;;21.05;4.70;;;;;;;;;;10257504;28;20081;-67
2023/09/25 19:55:05;;;;;;;17.60;4.80;;;;;;;;;;10261218;28;20076;-68
2023/09/25 20:00:09;;;;;;;22.30;4.47;;;;;;;;;;10256193;28;20083;-67
2023/09/25 20:05:09;;;;;;;14.32;5.05;;;;;;;;;;10256723;28;20510;-67
2023/09/25 20:10:07;;;;;;;15.95;5.10;;;;;;;;;;10255158;28;20087;-68
2023/09/25 20:15:08;;;;;;;16.25;5.38;;;;;;;;;;10252410;28;20506;-66
2023/09/25 20:20:07;;;;;;;22.35;4.43;;;;;;;;;;10256460;28;20939;-63
2023/09/25 20:25:05;;;;;;;24.13;5.40;;;;;;;;;;10251930;28;20076;-66
2023/09/25 20:30:04;;;;;;;15.68;5.32;;;;;;;;;;10248849;28;20103;-66
2023/09/25 20:35:04;;;;;;;18.42;4.90;;;;;;;;;;10253190;28;20075;-66
2023/09/25 20:40:03;;;;;;;18.88;5.65;;;;;;;;;;10249906;28;20064;-66
2023/09/25 20:45:01;;;;;;;18.00;6.07;;;;;;;;;;10246527;28;20099;-67
2023/09/25 20:49:59;;;;;;;17.77;5.43;;;;;;;;;;10248562;28;20088;-66
2023/09/25 20:54:59;;;;;;;34.78;7.18;;;;;;;;;;10250148;28;20061;-67
2023/09/25 20:59:57;;;;;;;32.78;5.32;;;;;;;;;;10255238;28;20069;-65
2023/09/25 21:04:55;;;;;;;19.08;4.50;;;;;;;;;;10253653;28;20068;-65
2023/09/25 21:09:54;;;;;;;25.52;5.20;;;;;;;;;;10249261;28;20068;-66
2023/09/25 21:14:54;;;;;;;19.73;5.40;;;;;;;;;;10249168;28;20082;-66
2023/09/25 21:19:52;;;;;;;24.02;5.75;;;;;;;;;;10250801;28;20525;-67
2023/09/25 21:24:50;;;;;;;19.77;6.00;;;;;;;;;;10250178;28;20133;-68
2023/09/25 21:29:48;;;;;;;24.85;5.40;;;;;;;;;;10248570;28;20505;-67
2023/09/25 21:34:48;;;;;;;23.23;4.95;;;;;;;;;;10248806;28;20099;-66
2023/09/25 21:39:46;;;;;;;18.25;6.00;;;;;;;;;;10249882;28;20501;-65
2023/09/25 21:44:45;;;;;;;19.75;5.22;;;;;;;;;;10249156;28;20076;-67
2023/09/25 21:49:43;;;;;;;21.83;4.95;;;;;;;;;;10247004;28;20072;-67
2023/09/25 21:54:43;;;;;;;12.43;4.53;;;;;;;;;;10235483;28;20060;-64
2023/09/25 21:59:41;;;;;;;14.68;5.18;;;;;;;;;;10251073;28;20084;-66
2023/09/25 22:04:39;;;;;;;19.17;5.68;;;;;;;;;;10247332;28;20510;-66
2023/09/25 22:09:38;;;;;;;29.55;6.80;;;;;;;;;;10249575;28;20093;-65
2023/09/25 22:14:37;;;;;;;16.63;5.68;;;;;;;;;;10248800;28;20072;-65
2023/09/25 22:19:35;;;;;;;20.77;5.70;;;;;;;;;;10246888;28;20088;-65
2023/09/25 22:24:34;;;;;;;22.42;5.35;;;;;;;;;;10246896;28;20069;-65
2023/09/25 22:29:32;;;;;;;24.80;5.22;;;;;;;;;;10249642;28;20081;-66
2023/09/25 22:34:32;;;;;;;28.48;4.97;;;;;;;;;;10247696;28;20057;-65
2023/09/25 22:39:30;;;;;;;32.58;6.88;;;;;;;;;;10252664;28;20080;-66
2023/09/25 22:44:28;;;;;;;20.33;6.22;;;;;;;;;;10255020;28;20069;-66
2023/09/25 22:49:26;;;;;;;17.33;6.00;;;;;;;;;;10255645;28;20072;-66
2023/09/25 22:54:26;;;;;;;24.85;6.90;;;;;;;;;;10256909;28;20076;-66
2023/09/25 22:59:24;;;;;;;22.23;5.90;;;;;;;;;;10255895;28;20073;-66
2023/09/25 23:04:23;;;;;;;31.17;5.90;;;;;;;;;;10254361;28;20088;-66
2023/09/25 23:09:21;;;;;;;27.77;5.40;;;;;;;;;;10254641;28;20068;-66
2023/09/25 23:14:22;;;;;;;28.88;7.32;;;;;;;;;;10253341;28;20462;-66
2023/09/25 23:19:21;;;;;;;17.30;5.35;;;;;;;;;;10255032;28;20075;-66
2023/09/25 23:24:19;;;;;;;22.42;6.25;;;;;;;;;;10254927;28;20485;-65
2023/09/25 23:29:17;;;;;;;16.38;6.50;;;;;;;;;;10254738;28;20570;-66
2023/09/25 23:34:17;;;;;;;23.15;5.70;;;;;;;;;;10252657;28;20077;-65
2023/09/25 23:39:16;;;;;;;23.25;6.13;;;;;;;;;;10255076;28;20096;-66
2023/09/25 23:44:15;;;;;;;16.00;6.35;;;;;;;;;;10254686;28;20640;-66
2023/09/25 23:49:13;;;;;;;23.75;6.55;;;;;;;;;;10253274;28;20084;-65
2023/09/25 23:54:13;;;;;;;21.58;5.90;;;;;;;;;;10230002;28;20083;-65
2023/09/25 23:59:12;;;;;;;17.73;5.30;;;;;;;;;;10251547;28;20536;-65
